Time;durP1;ratioP1;P1;durP2;ratioP2;P2;SDS_P1;SDS_P2;PMS_P1;PMS_P2;Temp;Humidity;BMP_temperature;BMP_pressure;BME280_temperature;BME280_humidity;BME280_pressure;Samples;Min_cycle;Max_cycle;Signal;HPM_P1;HPM_P2
2023/08/02 03:36:30;;;;;;;14.20;4.05;;;;;;;;;;6252028;22;20028;-95
2023/08/02 03:39:27;;;;;;;14.18;4.60;;;;;;;;;;6228234;23;20038;-93
2023/08/02 03:42:02;;;;;;;17.95;4.38;;;;;;;;;;6206269;23;20012;-95
2023/08/02 06:08:38;;;;;;;15.70;6.05;;;;;;;;;;6192260;22;20375;-93
2023/08/02 06:11:10;;;;;;;19.80;6.43;;;;;;;;;;6191374;23;20016;-91
2023/08/02 06:13:37;;;;;;;14.35;6.50;;;;;;;;;;6142689;23;20012;-92
2023/08/02 06:16:03;;;;;;;20.45;5.60;;;;;;;;;;6141598;23;20047;-93
2023/08/02 06:18:34;;;;;;;20.50;5.40;;;;;;;;;;6166277;23;20060;-91
2023/08/02 06:21:09;;;;;;;14.43;5.57;;;;;;;;;;6142802;23;20005;-92
2023/08/02 06:24:02;;;;;;;16.65;5.38;;;;;;;;;;6142506;23;20008;-93
2023/08/02 06:26:51;;;;;;;16.50;5.07;;;;;;;;;;6121374;23;20008;-93
2023/08/02 06:29:27;;;;;;;;;;;;;;;;;;;;;
2023/08/02 06:32:27;;;;;;;;;;;;;;;;;;;;;
2023/08/02 06:35:28;;;;;;;21.77;5.85;;;;;;;;;;6071918;23;20054;-93
2023/08/02 06:38:16;;;;;;;14.85;5.75;;;;;;;;;;6065130;23;20420;-93
2023/08/02 06:41:22;;;;;;;16.13;5.95;;;;;;;;;;6038598;23;20007;-92
2023/08/02 06:44:15;;;;;;;13.43;5.82;;;;;;;;;;6027728;23;20008;-93
2023/08/02 06:47:07;;;;;;;16.80;6.13;;;;;;;;;;5962612;24;20059;-92
2023/08/02 06:49:47;;;;;;;15.30;6.00;;;;;;;;;;6039625;23;20394;-94
2023/08/02 06:52:13;;;;;;;15.23;6.55;;;;;;;;;;6030962;23;20320;-93
2023/08/02 06:54:40;;;;;;;16.52;6.50;;;;;;;;;;6161643;23;20009;-95
2023/08/02 06:59:59;;;;;;;18.25;6.15;;;;;;;;;;5998132;23;20489;-93
2023/08/02 07:02:43;;;;;;;13.80;6.47;;;;;;;;;;6013274;23;20071;-95
2023/08/02 07:05:28;;;;;;;12.40;5.85;;;;;;;;;;6082454;23;20010;-92
2023/08/02 07:08:11;;;;;;;15.75;6.80;;;;;;;;;;6161212;23;20379;-93
2023/08/02 07:10:53;;;;;;;19.08;8.07;;;;;;;;;;6162745;22;20029;-93
2023/08/02 07:13:30;;;;;;;21.23;6.95;;;;;;;;;;6111342;23;20331;-94
2023/08/02 07:15:56;;;;;;;21.27;6.82;;;;;;;;;;6113175;23;20005;-95
2023/08/02 07:18:49;;;;;;;17.40;7.00;;;;;;;;;;6158350;23;20038;-94
2023/08/02 07:21:15;;;;;;;15.82;6.60;;;;;;;;;;6162127;23;20072;-95
2023/08/02 07:24:08;;;;;;;17.88;7.38;;;;;;;;;;6161991;23;20028;-95
2023/08/02 07:26:35;;;;;;;15.70;6.55;;;;;;;;;;6159907;23;20060;-96
2023/08/02 07:29:01;;;;;;;13.57;6.30;;;;;;;;;;6162622;23;20006;-95
2023/08/02 07:31:27;;;;;;;15.88;6.07;;;;;;;;;;6163502;23;20013;-95
2023/08/02 07:34:00;;;;;;;10.18;5.90;;;;;;;;;;6113803;23;20088;-95
2023/08/02 07:36:31;;;;;;;15.00;6.25;;;;;;;;;;6114027;23;20033;-95
2023/08/02 07:39:04;;;;;;;18.33;6.07;;;;;;;;;;6160976;23;20005;-96
2023/08/02 07:41:30;;;;;;;14.07;5.13;;;;;;;;;;6161800;23;20009;-96
2023/08/02 07:44:05;;;;;;;17.33;5.20;;;;;;;;;;6111589;23;20013;-95
2023/08/02 07:46:39;;;;;;;12.13;4.78;;;;;;;;;;6116659;23;20009;-96
2023/08/02 07:52:18;;;;;;;13.27;4.40;;;;;;;;;;6081645;23;20017;-94
2023/08/02 07:55:04;;;;;;;10.23;4.25;;;;;;;;;;6104357;23;20102;-96
2023/08/02 08:01:10;;;;;;;11.88;3.95;;;;;;;;;;6072028;23;20524;-96
2023/08/02 08:03:36;;;;;;;11.45;3.42;;;;;;;;;;6047969;23;20525;-96
2023/08/02 08:06:34;;;;;;;11.65;4.22;;;;;;;;;;6150075;23;20009;-94
2023/08/02 08:09:42;;;;;;;10.45;4.10;;;;;;;;;;6164923;22;20042;-95
2023/08/02 08:12:26;;;;;;;7.10;4.25;;;;;;;;;;6161248;23;20044;-96
2023/08/02 08:15:38;;;;;;;10.00;3.95;;;;;;;;;;6137854;23;20449;-95
2023/08/02 08:18:46;;;;;;;13.00;3.83;;;;;;;;;;6069215;23;20065;-92
2023/08/02 08:21:21;;;;;;;10.73;3.75;;;;;;;;;;6044604;23;20002;-95
2023/08/02 08:23:47;;;;;;;12.13;3.05;;;;;;;;;;6047317;23;20014;-93
2023/08/02 08:26:32;;;;;;;13.48;3.55;;;;;;;;;;6076946;23;20007;-95
2023/08/02 08:29:27;;;;;;;12.57;3.40;;;;;;;;;;6103009;23;20029;-95
2023/08/02 08:35:14;;;;;;;9.98;3.30;;;;;;;;;;6088817;23;20017;-95
2023/08/02 08:37:49;;;;;;;11.20;3.85;;;;;;;;;;6056358;23;20140;-95
2023/08/02 08:40:21;;;;;;;11.88;3.90;;;;;;;;;;6075129;23;20015;-92
2023/08/02 08:43:17;;;;;;;9.23;3.42;;;;;;;;;;6051093;23;20027;-95
2023/08/02 08:45:46;;;;;;;12.23;3.67;;;;;;;;;;6087288;23;20006;-94
2023/08/02 08:48:12;;;;;;;12.18;4.15;;;;;;;;;;6163725;23;20373;-96
2023/08/02 08:50:59;;;;;;;8.13;3.55;;;;;;;;;;6168697;23;20010;-95
2023/08/02 08:59:15;;;;;;;;;;;;;;;;;;;;;
2023/08/02 09:02:03;;;;;;;12.27;3.55;;;;;;;;;;6148166;23;19999;-95
2023/08/02 09:04:43;;;;;;;;;;;;;;;;;;;;;
2023/08/02 09:07:09;;;;;;;16.77;4.32;;;;;;;;;;6167209;23;20447;-96
2023/08/02 09:09:56;;;;;;;16.63;5.13;;;;;;;;;;6154107;22;20055;-95
2023/08/02 09:12:28;;;;;;;15.80;3.92;;;;;;;;;;6077097;23;20093;-93
2023/08/02 09:15:02;;;;;;;11.73;3.88;;;;;;;;;;6100909;23;20010;-94
2023/08/02 09:17:47;;;;;;;10.15;3.78;;;;;;;;;;6100031;23;20010;-93
2023/08/02 09:20:33;;;;;;;11.98;4.07;;;;;;;;;;6101997;23;20448;-94
2023/08/02 09:23:27;;;;;;;13.38;4.20;;;;;;;;;;6100504;23;20014;-94
2023/08/02 09:28:39;;;;;;;10.93;3.90;;;;;;;;;;6082134;23;20431;-93
2023/08/02 09:31:39;;;;;;;17.60;4.28;;;;;;;;;;6101583;23;20456;-94
2023/08/02 09:34:05;;;;;;;8.20;3.50;;;;;;;;;;6060352;23;20014;-96
2023/08/02 09:37:17;;;;;;;;;;;;;;;;;;;;;
2023/08/02 09:40:11;;;;;;;8.75;4.47;;;;;;;;;;6095024;23;20062;-94
2023/08/02 10:06:03;;;;;;;;;;;;;;;;;;6209518;22;20684;-94
2023/08/02 10:08:47;;;;;;;12.63;4.93;;;;;;;;;;6219478;22;20126;-93
2023/08/02 10:11:13;;;;;;;10.40;4.85;;;;;;;;;;6218125;23;20022;-93
2023/08/02 10:14:06;;;;;;;6.78;4.07;;;;;;;;;;6191219;23;20012;-93
2023/08/02 10:17:45;;;;;;;14.30;5.05;;;;;;;;;;6212245;23;20027;-91
2023/08/02 10:19:52;;;;;;;14.55;4.80;;;;;;;;;;6133826;23;20026;-93
2023/08/02 10:22:26;;;;;;;12.45;4.63;;;;;;;;;;6130764;23;20006;-93
2023/08/02 10:24:53;;;;;;;16.40;4.95;;;;;;;;;;6132685;23;20005;-93
2023/08/02 10:27:26;;;;;;;12.23;5.20;;;;;;;;;;6133120;23;20005;-94
2023/08/02 10:30:11;;;;;;;13.75;5.70;;;;;;;;;;6133043;23;20434;-96
2023/08/02 10:36:10;;;;;;;11.70;4.57;;;;;;;;;;6160503;23;20009;-92
2023/08/02 10:38:41;;;;;;;14.27;4.65;;;;;;;;;;6112068;23;20416;-94
2023/08/02 10:41:18;;;;;;;11.45;4.90;;;;;;;;;;6135706;23;20020;-94
2023/08/02 10:44:04;;;;;;;11.35;4.93;;;;;;;;;;6081546;23;20150;-92
2023/08/02 10:46:33;;;;;;;10.82;4.30;;;;;;;;;;6118421;23;20044;-92
2023/08/02 10:49:09;;;;;;;14.38;4.93;;;;;;;;;;6097928;23;20022;-91
2023/08/02 10:51:39;;;;;;;9.00;4.95;;;;;;;;;;6178342;23;20053;-91
2023/08/02 10:54:25;;;;;;;10.02;3.97;;;;;;;;;;6180517;23;20419;-88
2023/08/02 10:56:52;;;;;;;9.35;3.50;;;;;;;;;;6178944;23;20032;-88
2023/08/02 10:59:18;;;;;;;10.88;4.10;;;;;;;;;;6179808;23;20096;-88
2023/08/02 11:01:58;;;;;;;8.70;3.15;;;;;;;;;;6179123;23;20009;-87
2023/08/02 11:04:25;;;;;;;8.45;2.83;;;;;;;;;;6155720;23;20325;-89
2023/08/02 11:06:54;;;;;;;7.07;3.10;;;;;;;;;;6193139;22;20040;-92
2023/08/02 11:09:33;;;;;;;9.88;3.15;;;;;;;;;;6194835;23;20013;-93
2023/08/02 11:12:38;;;;;;;;;;;;;;;;;;;;;
2023/08/02 11:15:16;;;;;;;3.13;2.20;;;;;;;;;;6122527;23;20064;-93
2023/08/02 11:17:47;;;;;;;3.22;1.77;;;;;;;;;;6193595;23;20015;-93
2023/08/02 11:20:14;;;;;;;4.28;1.80;;;;;;;;;;6169342;23;20458;-92
2023/08/02 11:22:51;;;;;;;4.00;1.98;;;;;;;;;;6170200;23;20013;-91
2023/08/02 11:25:24;;;;;;;3.17;2.05;;;;;;;;;;6195285;23;20001;-94
2023/08/02 11:28:13;;;;;;;3.20;1.70;;;;;;;;;;6195637;23;20004;-94
2023/08/02 11:30:49;;;;;;;1.90;1.63;;;;;;;;;;6193786;23;20004;-91
2023/08/02 11:33:20;;;;;;;;;;;;;;;;;;6194943;23;20336;-93
2023/08/02 11:38:50;;;;;;;2.30;1.50;;;;;;;;;;6201226;23;20016;-94
2023/08/02 11:41:21;;;;;;;2.22;1.55;;;;;;;;;;6194339;23;20017;-93
2023/08/02 11:54:27;;;;;;;2.70;1.50;;;;;;;;;;6166051;22;20261;-94
2023/08/02 11:57:06;;;;;;;1.70;1.13;;;;;;;;;;6108773;23;20491;-95
2023/08/02 11:59:44;;;;;;;1.20;1.02;;;;;;;;;;6161060;23;20037;-94
2023/08/02 12:05:39;;;;;;;1.98;1.60;;;;;;;;;;6072844;23;20007;-94
2023/08/02 12:09:04;;;;;;;;;;;;;;;;;;;;;
2023/08/02 12:11:33;;;;;;;4.07;1.38;;;;;;;;;;6163387;23;20021;-96
2023/08/02 12:14:20;;;;;;;11.23;1.60;;;;;;;;;;6162253;23;20009;-96
2023/08/02 12:20:26;;;;;;;;;;;;;;;;;;;;;
2023/08/02 12:26:24;;;;;;;;;;;;;;;;;;;;;
2023/08/02 12:29:03;;;;;;;3.33;1.40;;;;;;;;;;6164160;23;20041;-96
2023/08/02 12:31:57;;;;;;;3.90;1.38;;;;;;;;;;6129006;23;20034;-96
2023/08/02 12:34:47;;;;;;;2.00;1.60;;;;;;;;;;6106245;23;20042;-96
2023/08/02 12:37:37;;;;;;;2.45;1.80;;;;;;;;;;6096184;23;20017;-94
2023/08/02 12:40:09;;;;;;;2.40;1.90;;;;;;;;;;6101714;23;20006;-96
2023/08/02 12:43:21;;;;;;;2.30;2.00;;;;;;;;;;6140997;23;20038;-95
2023/08/02 12:48:35;;;;;;;8.48;2.15;;;;;;;;;;6119251;23;20080;-93
2023/08/02 12:51:08;;;;;;;1.90;1.67;;;;;;;;;;6108189;23;20013;-94
2023/08/02 12:53:41;;;;;;;5.10;1.80;;;;;;;;;;6108369;23;20484;-95
2023/08/02 12:56:20;;;;;;;2.53;1.80;;;;;;;;;;6093837;23;20539;-95
2023/08/02 12:59:00;;;;;;;2.53;1.83;;;;;;;;;;6125357;23;20327;-96
2023/08/02 13:02:08;;;;;;;2.17;1.80;;;;;;;;;;6127920;23;20007;-95
2023/08/02 13:04:46;;;;;;;2.45;1.83;;;;;;;;;;6104808;23;20077;-93
2023/08/02 13:07:31;;;;;;;;;;;;;;;;;;;;;
2023/08/02 13:10:21;;;;;;;4.10;1.70;;;;;;;;;;6098941;23;20038;-95
2023/08/02 13:13:12;;;;;;;1.70;1.60;;;;;;;;;;6075574;23;20414;-95
2023/08/02 13:15:46;;;;;;;1.50;1.40;;;;;;;;;;6102056;23;20030;-95
2023/08/02 13:18:39;;;;;;;1.33;1.23;;;;;;;;;;6125644;23;20010;-95
2023/08/02 13:21:20;;;;;;;1.85;1.75;;;;;;;;;;6091678;23;20002;-96
2023/08/02 13:24:05;;;;;;;1.60;1.50;;;;;;;;;;6107342;23;20017;-95
2023/08/02 13:26:52;;;;;;;2.08;1.50;;;;;;;;;;6108200;23;20010;-93
2023/08/02 13:29:52;;;;;;;2.45;1.50;;;;;;;;;;6086027;23;20375;-95
2023/08/02 13:32:18;;;;;;;4.13;1.60;;;;;;;;;;6105924;23;20010;-96
2023/08/02 13:34:53;;;;;;;1.55;1.45;;;;;;;;;;6107124;23;20017;-96
2023/08/02 13:37:25;;;;;;;5.32;1.80;;;;;;;;;;6084800;23;20025;-94
2023/08/02 13:40:17;;;;;;;2.53;1.90;;;;;;;;;;6105605;23;20002;-94
2023/08/02 13:43:00;;;;;;;;;;;;;;;;;;;;;
2023/08/02 13:45:30;;;;;;;2.80;1.95;;;;;;;;;;6114929;23;20030;-96
2023/08/02 13:48:02;;;;;;;4.22;2.15;;;;;;;;;;6107751;23;20062;-94
2023/08/02 13:50:49;;;;;;;2.50;1.85;;;;;;;;;;6107758;23;20002;-96
2023/08/02 13:53:23;;;;;;;2.63;1.70;;;;;;;;;;6106793;23;20316;-95
2023/08/02 13:55:55;;;;;;;2.67;2.10;;;;;;;;;;6188753;22;20016;-95
2023/08/02 13:58:54;;;;;;;2.25;2.05;;;;;;;;;;6219741;22;20051;-94
2023/08/02 14:01:27;;;;;;;2.88;2.50;;;;;;;;;;6222976;23;20005;-96
2023/08/02 14:03:57;;;;;;;4.18;2.38;;;;;;;;;;6222508;23;20064;-94
2023/08/02 14:09:29;;;;;;;2.47;2.13;;;;;;;;;;6204167;23;20009;-95
2023/08/02 14:12:15;;;;;;;2.63;1.95;;;;;;;;;;6172893;23;20028;-95
2023/08/02 14:14:43;;;;;;;2.92;2.33;;;;;;;;;;6219123;23;20014;-95
2023/08/02 14:17:17;;;;;;;3.45;2.70;;;;;;;;;;6192365;23;20004;-92
2023/08/02 14:19:49;;;;;;;3.78;2.78;;;;;;;;;;6192550;23;20028;-94
2023/08/02 14:22:35;;;;;;;;;;;;;;;;;;;;;
2023/08/02 14:25:20;;;;;;;3.97;3.00;;;;;;;;;;6222787;23;20028;-93
2023/08/02 14:27:47;;;;;;;3.83;2.70;;;;;;;;;;6176082;23;20075;-94
2023/08/02 14:30:19;;;;;;;6.43;2.40;;;;;;;;;;6170875;23;20043;-95
2023/08/02 14:36:06;;;;;;;2.45;2.00;;;;;;;;;;6213292;23;20001;-96
2023/08/02 14:41:46;;;;;;;3.92;2.25;;;;;;;;;;6159090;23;20055;-94
2023/08/02 14:44:18;;;;;;;2.45;1.58;;;;;;;;;;6223834;23;20280;-95
2023/08/02 14:46:51;;;;;;;3.58;1.33;;;;;;;;;;6167027;23;20009;-96
2023/08/02 14:49:17;;;;;;;5.90;0.90;;;;;;;;;;6141849;23;20009;-95
2023/08/02 14:51:58;;;;;;;;;;;;;;;;;;;;;
2023/08/02 14:54:27;;;;;;;4.38;1.08;;;;;;;;;;6191393;23;20028;-95
2023/08/02 15:00:31;;;;;;;;;;;;;;;;;;;;;
2023/08/02 15:03:24;;;;;;;2.65;0.98;;;;;;;;;;6015278;23;20087;-94
2023/08/02 15:06:08;;;;;;;3.38;1.13;;;;;;;;;;6015569;23;20583;-93
2023/08/02 15:08:55;;;;;;;1.85;0.90;;;;;;;;;;6016635;23;20033;-96
2023/08/02 15:14:47;;;;;;;4.57;1.25;;;;;;;;;;6149774;23;20025;-95
2023/08/02 15:17:14;;;;;;;2.47;1.15;;;;;;;;;;6138710;23;20017;-96
2023/08/02 15:19:47;;;;;;;9.98;0.90;;;;;;;;;;6135995;23;20017;-96
2023/08/02 15:22:33;;;;;;;4.85;1.05;;;;;;;;;;6160556;23;20100;-96
2023/08/02 15:24:59;;;;;;;14.13;1.90;;;;;;;;;;6109683;23;20154;-95
2023/08/02 15:30:51;;;;;;;4.30;1.48;;;;;;;;;;6101057;23;20010;-94
2023/08/02 15:33:29;;;;;;;7.13;1.45;;;;;;;;;;6075406;23;20025;-96
2023/08/02 15:36:04;;;;;;;6.47;1.20;;;;;;;;;;6077007;23;20010;-94
2023/08/02 15:38:51;;;;;;;12.98;2.00;;;;;;;;;;6076809;23;20054;-96
2023/08/02 15:41:31;;;;;;;9.27;1.27;;;;;;;;;;6054871;23;20010;-92
2023/08/02 15:46:42;;;;;;;14.55;2.60;;;;;;;;;;6080385;23;20022;-95
2023/08/02 15:52:48;;;;;;;6.32;1.92;;;;;;;;;;6033344;23;20127;-95
2023/08/02 16:07:08;;;;;;;4.88;1.80;;;;;;;;;;6048771;23;20022;-91
2023/08/02 16:10:08;;;;;;;6.38;1.30;;;;;;;;;;6048138;23;20011;-93
2023/08/02 16:12:48;;;;;;;7.45;1.55;;;;;;;;;;6041188;23;20037;-96
2023/08/02 16:15:30;;;;;;;4.35;1.80;;;;;;;;;;6070460;23;20022;-94
2023/08/02 16:18:08;;;;;;;7.75;1.27;;;;;;;;;;6021037;23;20035;-93
2023/08/02 16:20:34;;;;;;;5.78;1.48;;;;;;;;;;6045138;23;20580;-93
2023/08/02 16:26:17;;;;;;;5.55;1.92;;;;;;;;;;6016533;23;20070;-94
2023/08/02 16:32:11;;;;;;;10.50;1.77;;;;;;;;;;6016321;23;20012;-93
2023/08/02 16:34:37;;;;;;;9.98;2.47;;;;;;;;;;6012581;23;20010;-94
2023/08/02 16:37:12;;;;;;;5.43;1.00;;;;;;;;;;6047337;23;20011;-94
2023/08/02 16:42:44;;;;;;;7.63;1.83;;;;;;;;;;6055639;23;20011;-94
2023/08/02 16:45:16;;;;;;;8.40;1.58;;;;;;;;;;6047324;23;20480;-94
2023/08/02 16:50:43;;;;;;;10.95;2.03;;;;;;;;;;6188459;23;20055;-95
2023/08/02 16:53:09;;;;;;;14.10;2.35;;;;;;;;;;6161650;23;20047;-93
2023/08/02 16:55:48;;;;;;;6.80;1.98;;;;;;;;;;6138073;23;20014;-94
2023/08/02 16:58:21;;;;;;;11.77;2.63;;;;;;;;;;6163644;23;20509;-94
2023/08/02 17:04:06;;;;;;;7.68;1.85;;;;;;;;;;6152206;23;20017;-91
2023/08/02 17:06:35;;;;;;;17.02;2.60;;;;;;;;;;6218713;23;20004;-94
2023/08/02 17:09:07;;;;;;;13.35;2.45;;;;;;;;;;6195070;23;20009;-92
2023/08/02 17:11:39;;;;;;;16.85;2.53;;;;;;;;;;6219965;23;20004;-94
2023/08/02 17:14:26;;;;;;;14.23;2.60;;;;;;;;;;6219043;23;20012;-95
2023/08/02 17:16:59;;;;;;;14.82;2.85;;;;;;;;;;6193417;23;20008;-95
2023/08/02 17:22:49;;;;;;;14.20;2.60;;;;;;;;;;6139917;23;20369;-93
2023/08/02 17:25:18;;;;;;;13.73;2.30;;;;;;;;;;6194446;23;20005;-95
2023/08/02 17:27:45;;;;;;;12.73;2.30;;;;;;;;;;6218883;23;20007;-96
2023/08/02 17:30:14;;;;;;;15.13;2.25;;;;;;;;;;6193947;23;20004;-93
2023/08/02 17:32:55;;;;;;;;;;;;;;;;;;;;;
2023/08/02 17:35:21;;;;;;;10.45;2.38;;;;;;;;;;6219621;23;20008;-94
2023/08/02 17:37:52;;;;;;;19.65;1.65;;;;;;;;;;6219114;23;20004;-93
2023/08/02 17:40:53;;;;;;;12.13;1.90;;;;;;;;;;6191862;23;20027;-94
2023/08/02 17:43:31;;;;;;;9.68;1.98;;;;;;;;;;6221535;23;20028;-95
2023/08/02 17:46:14;;;;;;;10.02;2.17;;;;;;;;;;6197339;23;20032;-92
2023/08/02 17:48:42;;;;;;;13.85;2.42;;;;;;;;;;6195680;23;20009;-95
2023/08/02 17:51:34;;;;;;;11.80;1.85;;;;;;;;;;6222174;23;20016;-96
2023/08/02 17:54:14;;;;;;;15.82;2.42;;;;;;;;;;6222704;23;20008;-94
2023/08/02 17:56:58;;;;;;;11.90;1.90;;;;;;;;;;6222116;23;20397;-93
2023/08/02 17:59:42;;;;;;;15.05;2.33;;;;;;;;;;6196073;23;20009;-91
2023/08/02 18:02:10;;;;;;;10.30;2.17;;;;;;;;;;6183786;23;20454;-94
2023/08/02 18:04:41;;;;;;;14.02;2.58;;;;;;;;;;6220988;23;20089;-92
2023/08/02 18:07:34;;;;;;;12.13;2.15;;;;;;;;;;6197647;23;20088;-95
2023/08/02 18:10:08;;;;;;;21.02;2.38;;;;;;;;;;6221459;23;20441;-94
2023/08/02 18:12:34;;;;;;;6.03;1.83;;;;;;;;;;6196660;23;20012;-95
2023/08/02 18:15:20;;;;;;;11.43;2.45;;;;;;;;;;6195656;23;20023;-95
2023/08/02 18:20:47;;;;;;;15.05;2.55;;;;;;;;;;6216053;23;20016;-95
2023/08/02 18:23:16;;;;;;;14.40;1.88;;;;;;;;;;6196037;23;20009;-92
2023/08/02 18:25:56;;;;;;;;;;;;;;;;;;;;;
2023/08/02 18:28:28;;;;;;;11.40;1.60;;;;;;;;;;6222072;23;20032;-93
2023/08/02 18:34:03;;;;;;;12.40;2.28;;;;;;;;;;6201427;23;20490;-92
2023/08/02 18:36:29;;;;;;;13.40;1.55;;;;;;;;;;6199029;23;20009;-93
2023/08/02 18:45:03;;;;;;;21.73;3.05;;;;;;;;;;6221565;23;20040;-92
2023/08/02 18:47:29;;;;;;;10.93;2.03;;;;;;;;;;6217081;23;20016;-94
2023/08/02 18:50:09;;;;;;;14.80;2.55;;;;;;;;;;6196667;23;20013;-94
2023/08/02 18:52:38;;;;;;;11.23;2.25;;;;;;;;;;6216126;23;20008;-92
2023/08/02 18:55:14;;;;;;;14.77;2.78;;;;;;;;;;6220531;23;20008;-93
2023/08/02 18:58:14;;;;;;;11.88;2.17;;;;;;;;;;6199690;23;20449;-93
2023/08/02 19:00:48;;;;;;;7.68;1.95;;;;;;;;;;6220279;22;20023;-94
2023/08/02 19:06:38;;;;;;;;;;;;;;;;;;;;;
2023/08/02 19:12:17;;;;;;;13.20;2.15;;;;;;;;;;6130444;23;20064;-92
2023/08/02 19:15:07;;;;;;;13.27;2.60;;;;;;;;;;6130172;23;20471;-94
2023/08/02 19:18:00;;;;;;;11.52;2.58;;;;;;;;;;6130041;23;20006;-93
2023/08/02 19:20:46;;;;;;;15.68;2.85;;;;;;;;;;6130063;23;20021;-91
2023/08/02 19:23:47;;;;;;;18.67;3.10;;;;;;;;;;6130069;23;20010;-92
2023/08/02 19:26:42;;;;;;;;;;;;;;;;;;;;;
2023/08/02 19:29:22;;;;;;;27.83;4.88;;;;;;;;;;6129167;23;20097;-94
2023/08/02 19:31:48;;;;;;;15.55;2.95;;;;;;;;;;6129292;23;20539;-94
2023/08/02 19:34:21;;;;;;;18.73;3.20;;;;;;;;;;6129567;23;20017;-93
2023/08/02 19:36:54;;;;;;;20.73;3.33;;;;;;;;;;6171226;23;20004;-94
2023/08/02 19:39:20;;;;;;;16.40;2.72;;;;;;;;;;6140321;23;20793;-94
2023/08/02 19:42:05;;;;;;;23.15;2.55;;;;;;;;;;6139651;23;20009;-94
2023/08/02 19:44:33;;;;;;;21.40;3.45;;;;;;;;;;6189690;23;20367;-93
2023/08/02 19:47:06;;;;;;;15.23;3.00;;;;;;;;;;6143379;23;20013;-94
2023/08/02 19:49:43;;;;;;;23.73;2.17;;;;;;;;;;6140128;23;20439;-93
2023/08/02 19:52:17;;;;;;;9.95;2.90;;;;;;;;;;6142080;23;20040;-89
2023/08/02 19:55:19;;;;;;;7.07;1.85;;;;;;;;;;6140168;23;20009;-92
2023/08/02 19:57:51;;;;;;;10.25;2.13;;;;;;;;;;6210448;23;20080;-93
2023/08/02 20:00:37;;;;;;;15.63;2.00;;;;;;;;;;6140054;23;20033;-91
2023/08/02 20:03:07;;;;;;;14.70;2.35;;;;;;;;;;6214505;22;20032;-93
2023/08/02 20:05:53;;;;;;;9.88;1.50;;;;;;;;;;6212247;23;20346;-94
2023/08/02 20:11:26;;;;;;;12.60;1.73;;;;;;;;;;6091718;23;20013;-92
2023/08/02 20:13:54;;;;;;;8.52;1.63;;;;;;;;;;6074805;23;20018;-94
2023/08/02 20:16:36;;;;;;;6.40;2.13;;;;;;;;;;6101314;23;20017;-92
2023/08/02 20:19:31;;;;;;;11.43;1.73;;;;;;;;;;6140622;23;20077;-94
2023/08/02 20:21:57;;;;;;;11.27;2.25;;;;;;;;;;6149434;23;20009;-96
2023/08/02 20:24:23;;;;;;;8.52;1.80;;;;;;;;;;6139511;23;20011;-94
2023/08/02 20:29:47;;;;;;;6.00;2.00;;;;;;;;;;6168662;23;20013;-92
2023/08/02 20:32:34;;;;;;;13.32;3.03;;;;;;;;;;6159854;23;20005;-94
2023/08/02 20:35:00;;;;;;;16.70;2.40;;;;;;;;;;6140086;23;20012;-92
2023/08/02 20:48:00;;;;;;;4.93;1.48;;;;;;;;;;5959379;24;20012;-96
2023/08/02 20:50:34;;;;;;;7.43;1.63;;;;;;;;;;6007701;23;20021;-96
2023/08/02 20:53:13;;;;;;;6.63;1.80;;;;;;;;;;6052862;23;20042;-93
2023/08/02 20:55:46;;;;;;;16.20;1.83;;;;;;;;;;6076901;23;20089;-93
2023/08/02 21:01:44;;;;;;;10.15;1.80;;;;;;;;;;6102696;23;20036;-96
2023/08/02 21:04:24;;;;;;;13.60;2.22;;;;;;;;;;6092901;23;20032;-96
2023/08/02 21:07:08;;;;;;;10.43;2.10;;;;;;;;;;6144191;23;20015;-96
2023/08/02 21:09:50;;;;;;;19.42;2.60;;;;;;;;;;6143999;23;20009;-95
2023/08/02 21:12:27;;;;;;;10.18;2.53;;;;;;;;;;6146380;23;20013;-96
2023/08/02 21:14:58;;;;;;;9.30;2.72;;;;;;;;;;6169516;23;20005;-96
2023/08/02 21:17:34;;;;;;;19.55;2.80;;;;;;;;;;6157532;23;20005;-93
2023/08/02 21:20:27;;;;;;;7.32;2.03;;;;;;;;;;6142826;23;20017;-96
2023/08/02 21:23:17;;;;;;;10.82;2.78;;;;;;;;;;6193825;23;20008;-94
2023/08/02 21:25:55;;;;;;;9.27;2.38;;;;;;;;;;6166276;23;20061;-92
2023/08/02 21:28:34;;;;;;;16.05;2.80;;;;;;;;;;6167228;23;20009;-96
2023/08/02 21:31:16;;;;;;;;;;;;;;;;;;;;;
2023/08/02 21:33:48;;;;;;;10.70;2.90;;;;;;;;;;6184013;23;20025;-96
2023/08/02 21:36:26;;;;;;;11.05;4.05;;;;;;;;;;6165371;23;20009;-94
2023/08/02 21:39:44;;;;;;;;;;;;;;;;;;;;;
2023/08/02 21:42:24;;;;;;;16.77;2.85;;;;;;;;;;6160488;23;20033;-94
2023/08/02 21:44:58;;;;;;;20.65;2.75;;;;;;;;;;6164375;23;20446;-95
2023/08/02 21:47:32;;;;;;;12.52;2.80;;;;;;;;;;6166260;23;20024;-95
2023/08/02 21:50:29;;;;;;;8.85;2.92;;;;;;;;;;6142776;23;20423;-96
2023/08/02 21:53:06;;;;;;;13.93;2.05;;;;;;;;;;6164218;23;20033;-95
2023/08/02 21:55:38;;;;;;;15.68;3.03;;;;;;;;;;6141597;23;20010;-96
2023/08/02 21:58:06;;;;;;;21.83;3.20;;;;;;;;;;6166473;23;20005;-95
2023/08/02 22:00:37;;;;;;;18.33;4.15;;;;;;;;;;6140801;23;20023;-94
2023/08/02 22:03:10;;;;;;;12.77;2.80;;;;;;;;;;6167040;22;20403;-95
2023/08/02 22:05:43;;;;;;;10.60;3.00;;;;;;;;;;6160751;23;20001;-95
2023/08/02 22:08:13;;;;;;;17.38;2.60;;;;;;;;;;6161738;23;20009;-96
2023/08/02 22:10:44;;;;;;;15.75;2.25;;;;;;;;;;6142348;23;20010;-96
2023/08/02 22:13:15;;;;;;;16.55;2.97;;;;;;;;;;6159766;23;20009;-94
2023/08/02 22:15:45;;;;;;;9.05;2.50;;;;;;;;;;6139752;23;20033;-94
2023/08/02 22:18:23;;;;;;;16.27;2.63;;;;;;;;;;6163158;23;20005;-93
2023/08/02 22:20:49;;;;;;;18.45;2.15;;;;;;;;;;6137572;23;20009;-93
2023/08/02 22:23:15;;;;;;;12.65;2.45;;;;;;;;;;6134650;23;20009;-95
2023/08/02 22:25:42;;;;;;;11.57;2.35;;;;;;;;;;6131661;23;20009;-94
2023/08/02 22:28:11;;;;;;;10.48;2.40;;;;;;;;;;6133206;23;20009;-92
2023/08/02 22:30:40;;;;;;;8.77;1.95;;;;;;;;;;6159275;23;20000;-91
2023/08/02 22:33:07;;;;;;;8.13;2.15;;;;;;;;;;6160159;23;20012;-92
2023/08/02 22:35:33;;;;;;;15.05;2.58;;;;;;;;;;6160271;23;20013;-93
2023/08/02 22:37:59;;;;;;;8.13;2.05;;;;;;;;;;6133820;23;20009;-92
2023/08/02 22:40:25;;;;;;;8.23;2.58;;;;;;;;;;6135842;23;20102;-91
2023/08/02 22:42:51;;;;;;;7.65;1.92;;;;;;;;;;6159113;23;20427;-91
2023/08/02 22:45:17;;;;;;;12.68;2.55;;;;;;;;;;6135040;23;20013;-91
2023/08/02 22:47:44;;;;;;;10.82;2.35;;;;;;;;;;6135060;23;20067;-92
2023/08/02 22:50:17;;;;;;;4.45;2.20;;;;;;;;;;6160155;23;20072;-94
2023/08/02 22:52:49;;;;;;;6.60;1.98;;;;;;;;;;6135308;23;20079;-94
2023/08/02 22:55:21;;;;;;;8.02;2.70;;;;;;;;;;6135984;23;20016;-93
2023/08/02 22:57:47;;;;;;;11.60;3.58;;;;;;;;;;6138014;23;20434;-93
2023/08/02 23:00:14;;;;;;;9.30;2.67;;;;;;;;;;6160525;23;20020;-93
2023/08/02 23:02:46;;;;;;;13.73;3.75;;;;;;;;;;6166614;22;20015;-92
2023/08/02 23:05:34;;;;;;;11.52;2.25;;;;;;;;;;6192474;23;20037;-93
2023/08/02 23:08:20;;;;;;;7.13;2.22;;;;;;;;;;6214525;23;20047;-92
2023/08/02 23:10:51;;;;;;;13.40;1.92;;;;;;;;;;6197162;23;20008;-95
2023/08/02 23:13:24;;;;;;;14.52;2.72;;;;;;;;;;6218333;23;20056;-95
2023/08/02 23:15:50;;;;;;;10.90;2.40;;;;;;;;;;6217292;23;20007;-94
2023/08/02 23:18:26;;;;;;;11.23;2.47;;;;;;;;;;6218721;23;20011;-94
2023/08/02 23:20:52;;;;;;;;;;;;;;;;;;6218819;23;20705;-95
2023/08/02 23:23:24;;;;;;;14.10;2.15;;;;;;;;;;6218109;23;19907;-95
2023/08/02 23:25:55;;;;;;;4.68;1.80;;;;;;;;;;6220512;23;20376;-95
2023/08/02 23:28:25;;;;;;;6.32;2.00;;;;;;;;;;6220715;23;20010;-93
2023/08/02 23:30:57;;;;;;;8.05;1.80;;;;;;;;;;6218964;23;20012;-94
2023/08/02 23:33:23;;;;;;;6.50;2.30;;;;;;;;;;6219720;23;20434;-95
2023/08/02 23:35:53;;;;;;;4.85;2.30;;;;;;;;;;6218721;23;20009;-94
2023/08/02 23:38:28;;;;;;;7.40;2.13;;;;;;;;;;6220490;23;20012;-93
2023/08/02 23:40:55;;;;;;;6.55;1.95;;;;;;;;;;6220708;23;20063;-94
2023/08/02 23:43:21;;;;;;;5.97;2.15;;;;;;;;;;6198024;23;20430;-92
2023/08/02 23:45:50;;;;;;;5.65;2.25;;;;;;;;;;6166496;23;20016;-92
2023/08/02 23:48:19;;;;;;;8.85;2.75;;;;;;;;;;6141068;23;20011;-95
2023/08/02 23:50:50;;;;;;;12.95;2.33;;;;;;;;;;6165400;23;20013;-93
2023/08/02 23:53:19;;;;;;;13.18;2.47;;;;;;;;;;6164977;23;20144;-95
2023/08/02 23:55:45;;;;;;;5.38;2.33;;;;;;;;;;6161441;23;20016;-94
2023/08/02 23:58:11;;;;;;;7.28;2.08;;;;;;;;;;6164600;23;20005;-91
